Time;durP1;ratioP1;P1;durP2;ratioP2;P2;SDS_P1;SDS_P2;PMS_P1;PMS_P2;Temp;Humidity;BMP_temperature;BMP_pressure;BME280_temperature;BME280_humidity;BME280_pressure;Samples;Min_cycle;Max_cycle;Signal;HPM_P1;HPM_P2
2023/05/03 00:00:20;;;;;;;3.03;2.20;;;8.70;99.90;;;;;;5026254;28;20227;-67
2023/05/03 00:02:46;;;;;;;2.87;2.57;;;8.70;99.90;;;;;;5036570;28;20199;-68
2023/05/03 00:05:14;;;;;;;3.17;2.30;;;8.70;99.90;;;;;;5037319;28;20205;-67
2023/05/03 00:07:43;;;;;;;2.97;2.10;;;8.80;99.90;;;;;;5038477;28;20235;-67
2023/05/03 00:10:12;;;;;;;4.83;2.27;;;8.70;99.90;;;;;;5037149;28;20235;-67
2023/05/03 00:12:40;;;;;;;3.67;2.37;;;8.60;99.90;;;;;;5033025;28;20248;-68
2023/05/03 00:15:08;;;;;;;2.30;1.80;;;8.60;99.90;;;;;;5052943;28;20250;-67
2023/05/03 00:17:38;;;;;;;5.40;2.57;;;8.60;99.90;;;;;;5054056;28;20638;-67
2023/05/03 00:20:06;;;;;;;6.27;2.77;;;8.60;99.90;;;;;;5036470;28;20640;-69
2023/05/03 00:22:33;;;;;;;4.60;2.40;;;8.60;99.90;;;;;;5054220;28;20231;-68
2023/05/03 00:25:01;;;;;;;2.87;2.40;;;8.60;99.90;;;;;;5052078;28;20196;-68
2023/05/03 00:27:28;;;;;;;2.53;2.07;;;8.60;99.90;;;;;;5051416;28;20211;-68
2023/05/03 00:29:55;;;;;;;4.50;2.10;;;8.50;99.90;;;;;;5054979;28;20677;-67
2023/05/03 00:32:22;;;;;;;4.93;2.00;;;8.60;99.90;;;;;;5055227;28;20282;-68
2023/05/03 00:34:56;;;;;;;4.53;2.30;;;8.50;99.90;;;;;;5054509;28;20207;-67
2023/05/03 00:37:24;;;;;;;6.67;2.47;;;8.40;99.90;;;;;;5051231;28;20227;-67
2023/05/03 00:39:51;;;;;;;3.53;1.90;;;8.50;99.90;;;;;;5075338;28;20191;-67
2023/05/03 00:42:18;;;;;;;3.77;2.13;;;8.30;99.90;;;;;;5076959;28;20243;-68
2023/05/03 00:44:45;;;;;;;4.23;2.10;;;8.40;99.90;;;;;;5075482;28;20265;-67
2023/05/03 00:47:12;;;;;;;4.23;1.90;;;8.30;99.90;;;;;;5074453;28;20202;-68
2023/05/03 00:49:40;;;;;;;4.30;1.90;;;8.20;99.90;;;;;;5077806;28;20207;-68
2023/05/03 00:52:08;;;;;;;4.33;2.00;;;8.30;99.90;;;;;;5073957;28;20218;-67
2023/05/03 00:54:35;;;;;;;5.43;2.63;;;8.40;99.90;;;;;;5072694;28;20565;-68
2023/05/03 00:57:04;;;;;;;4.07;2.10;;;8.40;99.90;;;;;;5076810;28;20297;-67
2023/05/03 00:59:33;;;;;;;3.57;1.87;;;8.10;99.90;;;;;;5075359;28;20711;-68
2023/05/03 01:02:00;;;;;;;2.50;2.30;;;8.10;99.90;;;;;;5074196;28;20199;-67
2023/05/03 01:04:28;;;;;;;1.93;1.73;;;8.10;99.90;;;;;;5074313;28;20215;-67
2023/05/03 01:07:06;;;;;;;3.30;2.00;;;8.10;99.90;;;;;;5059654;28;20200;-68
2023/05/03 01:09:52;;;;;;;2.90;2.07;;;8.20;99.90;;;;;;5072732;28;20229;-67
2023/05/03 01:12:44;;;;;;;4.43;1.80;;;8.20;99.90;;;;;;5076591;28;20224;-67
2023/05/03 01:15:27;;;;;;;3.67;2.00;;;7.90;99.90;;;;;;5057556;28;20812;-67
2023/05/03 01:18:02;;;;;;;2.93;1.90;;;7.90;99.90;;;;;;5076187;28;20239;-67
2023/05/03 01:20:33;;;;;;;4.97;2.10;;;7.90;99.90;;;;;;5075218;28;20249;-67
2023/05/03 01:23:09;;;;;;;6.43;1.90;;;8.00;99.90;;;;;;5056648;28;20203;-67
2023/05/03 01:25:36;;;;;;;6.20;2.20;;;8.00;99.90;;;;;;5075774;28;20231;-67
2023/05/03 01:28:03;;;;;;;5.83;1.90;;;7.80;99.90;;;;;;5075792;28;20252;-67
2023/05/03 01:30:31;;;;;;;6.20;2.40;;;7.80;99.90;;;;;;5036585;28;20203;-67
2023/05/03 01:33:09;;;;;;;2.50;2.30;;;7.80;99.90;;;;;;5073509;28;20241;-67
2023/05/03 01:35:52;;;;;;;5.30;2.00;;;7.90;99.90;;;;;;5057721;28;20230;-67
2023/05/03 01:38:21;;;;;;;2.67;2.13;;;7.80;99.90;;;;;;5057077;28;20252;-67
2023/05/03 01:40:51;;;;;;;5.97;2.43;;;7.80;99.90;;;;;;5074296;28;20210;-67
2023/05/03 01:43:19;;;;;;;5.20;2.27;;;7.80;99.90;;;;;;5071575;28;20233;-68
2023/05/03 01:45:47;;;;;;;6.00;1.90;;;7.90;99.90;;;;;;5075099;28;20194;-67
2023/05/03 01:48:16;;;;;;;6.00;2.20;;;7.90;99.90;;;;;;5044456;28;20205;-67
2023/05/03 01:50:43;;;;;;;5.17;2.50;;;7.90;99.90;;;;;;5054112;28;20693;-67
2023/05/03 01:53:10;;;;;;;3.70;1.90;;;7.90;99.90;;;;;;5056580;28;20272;-67
2023/05/03 01:55:37;;;;;;;6.43;2.93;;;7.80;99.90;;;;;;5075797;28;20207;-67
2023/05/03 01:58:05;;;;;;;3.20;1.97;;;7.80;99.90;;;;;;5081146;28;20650;-68
2023/05/03 02:00:32;;;;;;;3.67;2.23;;;7.70;99.90;;;;;;5079371;28;20188;-68
2023/05/03 02:02:59;;;;;;;4.60;2.40;;;7.70;99.90;;;;;;5061769;28;20641;-67
2023/05/03 02:05:26;;;;;;;4.77;1.87;;;7.80;99.90;;;;;;5080377;28;20210;-67
2023/05/03 02:07:53;;;;;;;3.70;2.50;;;7.80;99.90;;;;;;5069326;28;20206;-67
2023/05/03 02:10:20;;;;;;;2.73;2.03;;;7.70;99.90;;;;;;5080234;28;20214;-68
2023/05/03 02:12:47;;;;;;;3.10;1.63;;;7.60;99.90;;;;;;5080227;28;20265;-68
2023/05/03 02:15:14;;;;;;;3.67;1.97;;;7.70;99.90;;;;;;5079679;28;20289;-68
2023/05/03 02:17:42;;;;;;;4.97;2.33;;;7.60;99.90;;;;;;5060546;28;20198;-68
2023/05/03 02:20:09;;;;;;;2.67;1.90;;;7.70;99.90;;;;;;5080733;28;20206;-68
2023/05/03 02:22:36;;;;;;;5.33;1.87;;;7.50;99.90;;;;;;5079916;28;20615;-68
2023/05/03 02:25:03;;;;;;;5.17;2.53;;;7.60;99.90;;;;;;5067830;28;20252;-68
2023/05/03 02:27:30;;;;;;;4.63;2.20;;;7.60;99.90;;;;;;5063305;28;20202;-68
2023/05/03 02:29:56;;;;;;;2.80;2.03;;;7.60;99.90;;;;;;5062497;28;20294;-69
2023/05/03 02:32:24;;;;;;;3.23;2.40;;;7.50;99.90;;;;;;5079377;28;20222;-68
2023/05/03 02:34:51;;;;;;;1.80;1.50;;;7.60;99.90;;;;;;5080179;28;20229;-68
2023/05/03 02:37:18;;;;;;;4.17;2.10;;;7.60;99.90;;;;;;5080079;28;20296;-67
2023/05/03 02:39:45;;;;;;;2.70;1.90;;;7.40;99.90;;;;;;5080484;28;20227;-68
2023/05/03 02:42:11;;;;;;;6.10;1.80;;;7.50;99.90;;;;;;5078841;28;20767;-68
2023/05/03 02:44:38;;;;;;;2.63;1.60;;;7.50;99.90;;;;;;5078912;28;20255;-68
2023/05/03 02:47:06;;;;;;;4.83;1.90;;;7.40;99.90;;;;;;5080302;28;20230;-68
2023/05/03 02:49:33;;;;;;;6.47;1.80;;;7.40;99.90;;;;;;5062586;28;21047;-68
2023/05/03 02:52:00;;;;;;;3.23;1.90;;;7.40;99.90;;;;;;5059601;28;20294;-68
2023/05/03 02:54:26;;;;;;;3.70;2.10;;;7.40;99.90;;;;;;5079824;28;20190;-68
2023/05/03 02:56:53;;;;;;;3.10;1.93;;;7.40;99.90;;;;;;5080194;28;20297;-68
2023/05/03 02:59:20;;;;;;;3.70;1.80;;;7.30;99.90;;;;;;5079198;28;20203;-68
2023/05/03 03:01:48;;;;;;;4.37;1.80;;;7.30;99.90;;;;;;5079141;28;20285;-68
2023/05/03 03:04:15;;;;;;;2.60;1.90;;;7.40;99.90;;;;;;5080044;28;20206;-68
2023/05/03 03:06:42;;;;;;;4.77;1.90;;;7.40;99.90;;;;;;5079908;28;20644;-72
2023/05/03 03:09:09;;;;;;;3.50;1.70;;;7.40;99.90;;;;;;5060334;28;20200;-69
2023/05/03 03:11:36;;;;;;;4.43;2.10;;;7.30;99.90;;;;;;5080078;28;20300;-68
2023/05/03 03:14:02;;;;;;;4.27;2.07;;;7.30;99.90;;;;;;5062228;28;20227;-68
2023/05/03 03:16:29;;;;;;;2.80;1.90;;;7.20;99.90;;;;;;5078131;28;20240;-68
2023/05/03 03:18:56;;;;;;;2.20;1.67;;;7.20;99.90;;;;;;5080353;28;20658;-68
2023/05/03 03:21:23;;;;;;;4.10;1.73;;;7.10;99.90;;;;;;5077688;28;21750;-68
2023/05/03 03:23:50;;;;;;;5.37;2.10;;;7.10;99.90;;;;;;5077742;28;20195;-68
2023/05/03 03:26:17;;;;;;;5.50;2.40;;;7.00;99.90;;;;;;5077817;28;20293;-68
2023/05/03 03:28:45;;;;;;;3.67;2.00;;;7.00;99.90;;;;;;5057368;28;20702;-69
2023/05/03 03:31:12;;;;;;;3.77;2.23;;;7.00;99.90;;;;;;5061164;28;20229;-68
2023/05/03 03:33:39;;;;;;;4.67;2.00;;;7.00;99.90;;;;;;5078612;28;20265;-68
2023/05/03 03:36:06;;;;;;;3.97;1.90;;;7.00;99.90;;;;;;5076154;28;20242;-68
2023/05/03 03:38:33;;;;;;;2.70;1.67;;;7.00;99.90;;;;;;5075922;28;20221;-68
2023/05/03 03:41:00;;;;;;;2.63;2.10;;;7.00;99.90;;;;;;5025558;28;20200;-68
2023/05/03 03:43:27;;;;;;;6.50;1.90;;;7.10;99.90;;;;;;5060326;28;20662;-69
2023/05/03 03:45:54;;;;;;;5.47;2.00;;;7.00;99.90;;;;;;5059083;28;20282;-68
2023/05/03 03:48:21;;;;;;;5.20;1.90;;;7.00;99.90;;;;;;5069607;28;20218;-68
2023/05/03 03:50:49;;;;;;;3.70;1.90;;;7.00;99.90;;;;;;5060381;28;20209;-68
2023/05/03 03:53:15;;;;;;;3.63;2.07;;;7.00;99.90;;;;;;5060989;28;20211;-68
2023/05/03 03:55:42;;;;;;;2.97;2.13;;;7.00;99.90;;;;;;5061067;28;20234;-68
2023/05/03 03:58:09;;;;;;;3.77;2.43;;;7.00;99.90;;;;;;5079787;28;20638;-69
2023/05/03 04:00:36;;;;;;;3.43;1.73;;;7.00;99.90;;;;;;5078093;28;20671;-68
2023/05/03 04:03:05;;;;;;;2.67;1.80;;;6.90;99.90;;;;;;5059582;28;20218;-68
2023/05/03 04:05:33;;;;;;;2.87;1.93;;;6.80;99.90;;;;;;5077780;28;20199;-69
2023/05/03 04:08:00;;;;;;;3.63;2.13;;;6.90;99.90;;;;;;5077766;28;20670;-68
2023/05/03 04:10:27;;;;;;;6.77;1.80;;;6.80;99.90;;;;;;5077446;28;20232;-68
2023/05/03 04:12:54;;;;;;;5.93;1.83;;;6.80;99.90;;;;;;5056803;28;20563;-68
2023/05/03 04:15:21;;;;;;;4.30;2.40;;;6.80;99.90;;;;;;5053249;28;20272;-68
2023/05/03 04:17:48;;;;;;;4.03;2.17;;;6.70;99.90;;;;;;5054979;28;20559;-69
2023/05/03 04:20:16;;;;;;;3.97;2.10;;;6.70;99.90;;;;;;5037571;28;20274;-68
2023/05/03 04:22:43;;;;;;;3.70;2.60;;;6.70;99.90;;;;;;5037282;28;20213;-68
2023/05/03 04:25:12;;;;;;;3.23;2.83;;;6.70;99.90;;;;;;5052923;28;20301;-69
2023/05/03 04:27:40;;;;;;;5.07;2.40;;;6.70;99.90;;;;;;5050575;28;20225;-68
2023/05/03 04:30:07;;;;;;;3.47;2.40;;;6.80;99.90;;;;;;5040936;28;20547;-68
2023/05/03 04:32:39;;;;;;;2.83;2.03;;;6.80;99.90;;;;;;5049871;28;20871;-68
2023/05/03 04:35:08;;;;;;;5.10;2.00;;;6.90;99.90;;;;;;5054883;28;20218;-68
2023/05/03 04:37:39;;;;;;;3.37;2.60;;;6.80;99.90;;;;;;5055058;28;20210;-68
2023/05/03 04:40:08;;;;;;;8.03;2.80;;;6.80;99.90;;;;;;5053405;28;20790;-68
2023/05/03 04:42:35;;;;;;;3.10;2.27;;;6.80;99.90;;;;;;5045336;28;20211;-68
2023/05/03 04:45:03;;;;;;;3.20;2.60;;;6.90;99.90;;;;;;5047878;28;20306;-68
2023/05/03 04:47:29;;;;;;;3.33;2.30;;;6.80;99.90;;;;;;5053106;28;20264;-69
2023/05/03 04:49:56;;;;;;;6.83;2.73;;;6.70;99.90;;;;;;5051552;28;20201;-68
2023/05/03 04:52:25;;;;;;;3.83;2.80;;;6.70;99.90;;;;;;5051102;28;21026;-68
2023/05/03 04:54:53;;;;;;;3.27;2.30;;;6.70;99.90;;;;;;5049923;28;20714;-68
2023/05/03 04:57:20;;;;;;;2.27;2.07;;;6.80;99.90;;;;;;5051477;28;20202;-69
2023/05/03 04:59:47;;;;;;;3.07;2.77;;;6.70;99.90;;;;;;5051617;28;20217;-70
2023/05/03 05:02:13;;;;;;;2.60;1.87;;;6.70;99.90;;;;;;5052606;28;20194;-69
2023/05/03 05:04:40;;;;;;;3.13;2.27;;;6.90;99.90;;;;;;5035987;28;20239;-68
2023/05/03 05:07:07;;;;;;;4.27;2.20;;;6.90;99.90;;;;;;5054221;28;20611;-69
2023/05/03 05:09:35;;;;;;;3.47;2.30;;;7.00;99.90;;;;;;5039377;28;20198;-69
2023/05/03 05:12:02;;;;;;;8.17;2.57;;;7.00;99.90;;;;;;5034703;28;20657;-68
2023/05/03 05:14:30;;;;;;;4.47;2.23;;;7.10;99.90;;;;;;5033100;28;20710;-68
2023/05/03 05:16:57;;;;;;;6.63;2.43;;;7.10;99.90;;;;;;5036638;28;20286;-68
2023/05/03 05:19:24;;;;;;;5.40;2.53;;;7.20;99.90;;;;;;5054763;28;20231;-68
2023/05/03 05:21:51;;;;;;;3.37;2.50;;;7.10;99.90;;;;;;5035562;28;20199;-69
2023/05/03 05:24:18;;;;;;;6.37;2.50;;;7.20;99.90;;;;;;5017359;28;20232;-68
2023/05/03 05:26:45;;;;;;;3.73;2.70;;;7.30;99.90;;;;;;5052900;28;20295;-68
2023/05/03 05:29:12;;;;;;;4.43;2.17;;;7.30;99.90;;;;;;5054105;28;20210;-68
2023/05/03 05:31:39;;;;;;;4.67;2.90;;;7.30;99.90;;;;;;5055566;28;20219;-67
2023/05/03 05:34:06;;;;;;;4.07;2.87;;;7.20;99.90;;;;;;5056212;28;20225;-67
2023/05/03 05:36:33;;;;;;;6.87;3.03;;;7.20;99.90;;;;;;5043146;28;20200;-68
2023/05/03 05:39:00;;;;;;;6.27;2.50;;;7.20;99.90;;;;;;5058064;28;20680;-68
2023/05/03 05:41:27;;;;;;;3.00;2.40;;;7.20;99.90;;;;;;5054765;28;20299;-68
2023/05/03 05:43:54;;;;;;;4.97;2.50;;;7.30;99.90;;;;;;5055055;28;20206;-68
2023/05/03 05:46:21;;;;;;;5.23;2.67;;;7.50;99.90;;;;;;5022147;28;20199;-70
2023/05/03 05:48:50;;;;;;;4.97;2.70;;;7.60;99.90;;;;;;5029668;28;20207;-68
2023/05/03 05:51:17;;;;;;;4.27;2.70;;;7.70;99.90;;;;;;5058394;28;20211;-68
2023/05/03 05:53:44;;;;;;;8.83;2.83;;;7.80;99.90;;;;;;5041457;28;20223;-68
2023/05/03 05:56:11;;;;;;;5.60;2.47;;;7.80;99.90;;;;;;5032961;28;20292;-68
2023/05/03 05:58:38;;;;;;;2.80;2.33;;;7.80;99.90;;;;;;5051988;28;20214;-68
2023/05/03 06:01:06;;;;;;;5.80;2.73;;;7.70;99.90;;;;;;5028923;28;20210;-68
2023/05/03 06:03:33;;;;;;;8.13;2.70;;;7.70;99.90;;;;;;5033756;28;20252;-68
2023/05/03 06:06:00;;;;;;;5.60;2.90;;;8.00;99.90;;;;;;5055021;28;20738;-67
2023/05/03 06:08:27;;;;;;;3.23;2.87;;;7.90;99.90;;;;;;5034673;28;20199;-68
2023/05/03 06:10:54;;;;;;;3.57;2.53;;;8.10;99.90;;;;;;5052485;28;20738;-68
2023/05/03 06:13:21;;;;;;;6.17;2.63;;;8.30;99.90;;;;;;5050906;28;20211;-68
2023/05/03 06:15:48;;;;;;;3.90;2.73;;;8.30;99.90;;;;;;5052257;28;20283;-68
2023/05/03 06:18:15;;;;;;;4.97;3.10;;;8.70;99.90;;;;;;5050444;28;20223;-65
2023/05/03 06:20:42;;;;;;;4.23;2.70;;;8.70;99.90;;;;;;4689943;28;9999696;-66
2023/05/03 06:23:09;;;;;;;4.83;2.53;;;8.90;99.90;;;;;;5023846;28;20663;-67
2023/05/03 06:25:36;;;;;;;4.90;2.70;;;8.80;99.90;;;;;;5051798;28;20218;-67
2023/05/03 06:28:03;;;;;;;2.97;2.30;;;8.90;99.90;;;;;;5030332;28;20555;-67
2023/05/03 06:30:30;;;;;;;3.47;2.43;;;9.00;99.90;;;;;;5049249;28;20201;-67
2023/05/03 06:32:57;;;;;;;5.73;2.90;;;9.20;99.90;;;;;;5046723;28;20646;-66
2023/05/03 06:35:25;;;;;;;5.10;2.40;;;9.30;99.90;;;;;;5047263;28;20200;-67
2023/05/03 06:37:52;;;;;;;5.37;2.20;;;9.20;99.90;;;;;;5045811;28;20303;-67
2023/05/03 06:40:19;;;;;;;4.00;2.20;;;9.40;99.90;;;;;;5047891;28;20396;-67
2023/05/03 06:42:45;;;;;;;5.07;2.17;;;9.60;99.90;;;;;;5047666;28;20714;-67
2023/05/03 06:45:12;;;;;;;2.80;1.93;;;9.70;99.90;;;;;;5030148;28;20236;-66
2023/05/03 06:47:41;;;;;;;2.97;2.17;;;10.00;99.90;;;;;;5048659;28;20292;-67
2023/05/03 06:50:09;;;;;;;3.70;1.90;;;10.20;99.90;;;;;;4995051;28;20281;-68
2023/05/03 06:52:36;;;;;;;3.10;1.87;;;10.30;99.90;;;;;;5014144;28;20208;-67
2023/05/03 06:55:03;;;;;;;3.97;2.00;;;10.50;99.90;;;;;;5048605;28;20191;-66
2023/05/03 06:57:30;;;;;;;3.77;2.33;;;10.50;99.90;;;;;;5029022;28;20197;-67
2023/05/03 06:59:58;;;;;;;4.47;2.43;;;10.80;99.90;;;;;;5049725;28;20246;-67
2023/05/03 07:02:25;;;;;;;4.33;2.83;;;10.80;99.90;;;;;;5031309;28;20495;-67
2023/05/03 07:04:52;;;;;;;5.57;2.70;;;10.70;99.90;;;;;;5030084;28;20558;-66
2023/05/03 07:07:19;;;;;;;6.20;2.40;;;10.90;99.90;;;;;;5044668;28;21540;-67
2023/05/03 07:09:47;;;;;;;3.90;2.40;;;11.10;99.90;;;;;;5042448;28;20312;-66
2023/05/03 07:12:15;;;;;;;8.40;2.90;;;11.30;99.90;;;;;;5010902;28;20642;-67
2023/05/03 07:14:42;;;;;;;4.70;2.37;;;11.60;99.90;;;;;;5004486;28;20247;-68
2023/05/03 07:17:09;;;;;;;5.23;2.40;;;11.40;99.90;;;;;;5025718;28;20224;-68
2023/05/03 07:19:37;;;;;;;4.83;2.93;;;12.00;99.90;;;;;;5021581;28;20233;-67
2023/05/03 07:22:04;;;;;;;5.10;2.57;;;11.90;99.90;;;;;;5021461;28;20220;-67
2023/05/03 07:24:31;;;;;;;4.73;2.93;;;11.90;99.90;;;;;;5023610;28;20211;-67
2023/05/03 07:26:58;;;;;;;3.23;2.40;;;11.90;99.90;;;;;;5029483;28;20610;-67
2023/05/03 07:29:26;;;;;;;4.67;2.53;;;12.10;99.90;;;;;;5027227;28;20663;-67
2023/05/03 07:31:53;;;;;;;5.83;2.10;;;12.30;99.90;;;;;;4989984;28;20193;-67
2023/05/03 07:34:20;;;;;;;2.50;2.30;;;12.30;99.90;;;;;;4999683;28;20766;-68
2023/05/03 07:36:47;;;;;;;4.43;2.30;;;12.50;99.90;;;;;;5022804;28;20738;-67
2023/05/03 07:39:14;;;;;;;6.63;2.90;;;12.20;99.90;;;;;;5020600;28;20291;-68
2023/05/03 07:41:41;;;;;;;4.13;2.70;;;12.30;99.90;;;;;;5000087;28;20223;-67
2023/05/03 07:44:08;;;;;;;5.77;3.20;;;12.20;99.90;;;;;;5022374;28;20200;-67
2023/05/03 07:46:35;;;;;;;6.53;2.70;;;12.10;99.90;;;;;;5012873;28;20208;-68
2023/05/03 07:49:03;;;;;;;4.30;2.70;;;12.10;99.90;;;;;;5018206;28;20303;-67
2023/05/03 07:51:38;;;;;;;2.83;1.93;;;12.40;99.90;;;;;;5020517;28;20208;-67
2023/05/03 07:54:05;;;;;;;4.70;2.37;;;12.50;99.90;;;;;;5024908;28;20220;-67
2023/05/03 07:56:32;;;;;;;5.57;2.60;;;12.40;99.90;;;;;;5032702;28;20254;-68
2023/05/03 07:58:59;;;;;;;4.37;2.50;;;12.30;99.90;;;;;;5027178;28;20657;-67
2023/05/03 08:01:29;;;;;;;3.33;2.10;;;12.40;99.90;;;;;;5025350;28;20307;-67
2023/05/03 08:03:57;;;;;;;4.27;2.50;;;12.70;99.90;;;;;;5026758;28;20302;-66
2023/05/03 08:06:24;;;;;;;4.40;2.50;;;12.40;99.90;;;;;;5028567;28;20218;-67
2023/05/03 08:08:51;;;;;;;3.40;2.03;;;12.90;99.90;;;;;;5030486;28;20268;-68
2023/05/03 08:11:18;;;;;;;3.40;2.30;;;13.00;99.90;;;;;;5029467;28;20263;-67
2023/05/03 08:13:46;;;;;;;6.20;2.40;;;13.00;99.90;;;;;;5025043;28;20796;-67
2023/05/03 08:16:13;;;;;;;4.73;2.53;;;12.60;99.90;;;;;;5045113;28;20330;-67
2023/05/03 08:18:40;;;;;;;2.93;2.43;;;12.90;99.90;;;;;;5051157;28;20248;-67
2023/05/03 08:21:09;;;;;;;6.47;3.03;;;12.70;99.90;;;;;;5049136;28;20199;-66
2023/05/03 08:23:36;;;;;;;3.33;2.20;;;12.90;99.90;;;;;;5048018;28;20266;-67
2023/05/03 08:26:03;;;;;;;4.67;2.27;;;13.10;99.90;;;;;;5033496;28;20558;-68
2023/05/03 08:28:30;;;;;;;3.63;2.40;;;13.40;99.90;;;;;;5015991;28;20306;-68
2023/05/03 08:30:58;;;;;;;5.90;2.60;;;13.10;99.90;;;;;;5021547;28;20272;-68
2023/05/03 08:33:25;;;;;;;3.70;2.13;;;12.90;99.90;;;;;;5053686;28;20227;-67
2023/05/03 08:35:52;;;;;;;5.67;2.40;;;13.60;99.90;;;;;;5052416;28;20242;-67
2023/05/03 08:38:19;;;;;;;4.03;2.40;;;13.90;99.90;;;;;;5033364;28;20893;-67
2023/05/03 08:40:49;;;;;;;3.93;2.40;;;13.80;99.90;;;;;;5049397;28;20727;-67
2023/05/03 08:43:20;;;;;;;3.30;2.00;;;14.40;99.90;;;;;;5029011;28;20226;-68
2023/05/03 08:45:47;;;;;;;5.43;2.40;;;14.60;99.90;;;;;;5042459;28;20559;-66
2023/05/03 08:48:15;;;;;;;3.03;2.27;;;14.60;99.90;;;;;;5031273;28;20201;-67
2023/05/03 08:50:43;;;;;;;3.90;2.70;;;14.50;99.90;;;;;;5049484;28;20208;-68
2023/05/03 08:53:10;;;;;;;3.70;2.30;;;14.70;99.90;;;;;;5050208;28;20253;-67
2023/05/03 08:55:37;;;;;;;3.63;3.00;;;14.50;99.90;;;;;;5049659;28;20999;-66
2023/05/03 08:58:11;;;;;;;4.77;2.37;;;13.60;99.90;;;;;;5034732;28;20269;-66
2023/05/03 09:00:40;;;;;;;2.53;2.27;;;13.90;99.90;;;;;;5046433;28;20718;-66
2023/05/03 09:03:07;;;;;;;3.37;2.40;;;14.70;99.90;;;;;;5047973;28;20209;-66
2023/05/03 09:05:37;;;;;;;5.17;2.60;;;14.80;99.90;;;;;;5037550;28;20223;-66
2023/05/03 09:08:11;;;;;;;10.33;2.73;;;14.80;99.90;;;;;;5054544;28;20219;-66
2023/05/03 09:10:40;;;;;;;3.53;2.20;;;15.20;99.90;;;;;;5057147;28;20203;-65
2023/05/03 09:13:08;;;;;;;5.00;2.70;;;15.50;99.90;;;;;;5047955;28;20252;-60
2023/05/03 09:15:35;;;;;;;3.93;2.63;;;15.20;99.90;;;;;;5039973;28;20232;-60
2023/05/03 09:18:07;;;;;;;6.40;2.37;;;14.50;99.90;;;;;;5058260;28;20310;-60
2023/05/03 09:20:35;;;;;;;5.10;2.60;;;15.20;99.90;;;;;;5054355;28;20506;-60
2023/05/03 09:23:03;;;;;;;4.47;2.83;;;15.40;99.90;;;;;;5054998;28;20320;-60
2023/05/03 09:25:50;;;;;;;6.47;2.50;;;15.50;99.90;;;;;;5054228;28;20202;-60
2023/05/03 09:28:18;;;;;;;5.50;2.40;;;15.20;99.90;;;;;;5051880;28;20216;-60
2023/05/03 09:30:47;;;;;;;5.00;2.47;;;14.80;99.90;;;;;;5054472;28;20654;-60
2023/05/03 09:33:21;;;;;;;3.30;2.30;;;14.90;99.90;;;;;;5060562;28;20634;-61
2023/05/03 09:35:56;;;;;;;4.40;2.63;;;14.80;99.90;;;;;;5056407;28;20193;-60
2023/05/03 09:38:28;;;;;;;3.83;2.53;;;15.30;99.90;;;;;;5061043;28;20200;-60
2023/05/03 09:40:55;;;;;;;6.07;2.53;;;15.50;99.90;;;;;;5056873;28;20289;-60
2023/05/03 09:43:22;;;;;;;4.23;2.50;;;15.30;99.90;;;;;;5064192;28;20202;-60
2023/05/03 09:45:49;;;;;;;4.80;2.80;;;15.20;99.90;;;;;;5052811;28;20213;-60
2023/05/03 09:48:17;;;;;;;5.03;2.60;;;15.70;99.90;;;;;;5060025;28;20237;-60
2023/05/03 09:50:45;;;;;;;4.70;2.70;;;15.70;99.90;;;;;;5057307;28;20202;-61
2023/05/03 09:53:14;;;;;;;3.53;2.60;;;15.50;99.90;;;;;;5063478;28;20567;-60
2023/05/03 09:55:41;;;;;;;5.67;2.80;;;15.50;99.90;;;;;;5056939;28;20214;-60
2023/05/03 09:58:08;;;;;;;5.63;3.17;;;15.60;99.90;;;;;;5046511;28;21114;-60
2023/05/03 10:00:39;;;;;;;3.10;2.80;;;15.60;99.90;;;;;;5063440;28;20315;-60
2023/05/03 10:03:11;;;;;;;5.07;3.10;;;16.00;99.90;;;;;;5051760;28;20205;-61
2023/05/03 10:05:45;;;;;;;5.50;2.97;;;15.60;99.90;;;;;;5055662;28;20207;-60
2023/05/03 10:08:23;;;;;;;5.27;3.10;;;15.30;99.90;;;;;;5054850;28;20223;-60
2023/05/03 10:10:54;;;;;;;3.53;2.87;;;15.10;99.90;;;;;;5052115;28;20234;-60
2023/05/03 10:13:24;;;;;;;2.73;2.53;;;15.30;99.90;;;;;;5040885;28;20215;-60
2023/05/03 10:16:04;;;;;;;4.37;3.10;;;15.70;99.90;;;;;;5020535;28;20285;-60
2023/05/03 10:18:32;;;;;;;3.77;3.40;;;15.40;99.90;;;;;;5025919;28;20321;-60
2023/05/03 10:21:13;;;;;;;3.50;2.87;;;14.70;99.90;;;;;;5015793;28;20198;-61
2023/05/03 10:24:08;;;;;;;4.70;2.60;;;14.80;99.90;;;;;;5017939;28;20198;-61
2023/05/03 10:26:35;;;;;;;4.10;2.93;;;15.10;99.90;;;;;;5020343;28;20727;-60
2023/05/03 10:29:02;;;;;;;2.70;2.50;;;15.50;99.90;;;;;;5018532;28;20206;-60
2023/05/03 10:31:45;;;;;;;6.90;2.87;;;15.20;99.90;;;;;;5004727;28;21641;-60
2023/05/03 10:34:20;;;;;;;3.90;2.97;;;15.10;99.90;;;;;;5009071;28;20241;-61
2023/05/03 10:36:54;;;;;;;4.17;2.77;;;15.60;99.90;;;;;;5030305;28;20247;-61
2023/05/03 10:39:21;;;;;;;4.67;2.90;;;15.40;99.90;;;;;;5027968;28;20199;-60
2023/05/03 10:41:59;;;;;;;2.87;2.37;;;15.40;99.90;;;;;;5022528;28;20979;-61
2023/05/03 10:44:48;;;;;;;5.80;3.30;;;15.70;99.90;;;;;;5024517;28;20242;-61
2023/05/03 10:47:17;;;;;;;4.47;2.33;;;15.90;99.90;;;;;;5025842;28;20223;-62
2023/05/03 10:49:44;;;;;;;6.30;3.30;;;15.30;99.90;;;;;;5006274;28;20620;-61
2023/05/03 10:52:36;;;;;;;4.17;2.97;;;15.40;99.90;;;;;;5024110;28;20211;-61
2023/05/03 10:55:12;;;;;;;5.30;2.80;;;15.30;99.90;;;;;;5008729;28;20296;-65
2023/05/03 10:57:46;;;;;;;3.20;2.77;;;15.30;99.90;;;;;;5032311;28;20206;-65
2023/05/03 11:00:17;;;;;;;3.70;2.60;;;15.20;99.90;;;;;;5028572;28;20272;-61
2023/05/03 11:03:22;;;;;;;4.00;3.00;;;15.70;99.90;;;;;;5023722;28;20356;-61
2023/05/03 11:05:50;;;;;;;3.33;2.83;;;15.90;99.90;;;;;;5021925;28;20203;-61
2023/05/03 11:08:19;;;;;;;4.37;2.60;;;16.00;99.90;;;;;;5014165;28;20211;-62
2023/05/03 11:10:48;;;;;;;4.93;2.90;;;15.50;99.90;;;;;;5027415;28;20289;-60
2023/05/03 11:13:16;;;;;;;3.27;2.97;;;15.70;99.90;;;;;;5020448;28;20218;-61
2023/05/03 11:15:43;;;;;;;3.70;3.07;;;15.80;99.90;;;;;;5030565;28;20239;-61
2023/05/03 11:18:12;;;;;;;4.83;2.77;;;16.30;99.90;;;;;;5007608;28;20246;-61
2023/05/03 11:20:39;;;;;;;5.33;3.30;;;16.00;99.90;;;;;;5021882;28;20216;-61
2023/05/03 11:23:06;;;;;;;7.40;3.20;;;16.10;99.90;;;;;;5018539;28;20649;-61
2023/05/03 11:25:34;;;;;;;4.57;2.67;;;16.60;99.90;;;;;;5019440;28;20261;-61
2023/05/03 11:28:03;;;;;;;5.50;3.30;;;16.20;99.90;;;;;;5022438;28;20209;-61
2023/05/03 11:30:33;;;;;;;10.50;3.30;;;16.50;99.90;;;;;;5014174;28;20214;-61
2023/05/03 11:33:01;;;;;;;5.73;3.03;;;16.30;99.90;;;;;;5020854;28;20720;-59
2023/05/03 11:35:29;;;;;;;6.53;3.20;;;16.80;99.90;;;;;;4994514;28;20223;-62
2023/05/03 11:37:56;;;;;;;4.53;2.90;;;17.30;99.90;;;;;;5011306;28;20246;-63
2023/05/03 11:40:23;;;;;;;4.83;3.30;;;17.90;99.90;;;;;;5011634;28;20571;-62
2023/05/03 11:42:51;;;;;;;5.70;2.87;;;17.80;99.90;;;;;;5021521;28;20207;-59
2023/05/03 11:45:20;;;;;;;7.30;3.03;;;17.50;99.90;;;;;;5008090;28;20306;-61
2023/05/03 11:47:50;;;;;;;4.67;3.00;;;17.60;99.90;;;;;;5030362;28;20858;-60
2023/05/03 11:50:18;;;;;;;3.80;3.07;;;17.60;99.90;;;;;;5011137;28;20242;-62
2023/05/03 11:52:45;;;;;;;3.20;2.90;;;17.80;99.90;;;;;;5033922;28;20313;-61
2023/05/03 11:55:12;;;;;;;4.53;3.13;;;17.80;99.90;;;;;;5031530;28;20285;-60
2023/05/03 11:57:41;;;;;;;7.70;3.50;;;17.50;99.90;;;;;;5019607;28;20219;-60
2023/05/03 12:00:16;;;;;;;4.80;2.90;;;17.50;99.90;;;;;;5032025;28;20875;-60
2023/05/03 12:02:46;;;;;;;5.90;3.37;;;17.60;99.90;;;;;;5027430;28;20644;-61
2023/05/03 12:05:14;;;;;;;6.03;3.03;;;17.50;99.90;;;;;;5026454;28;20288;-60
2023/05/03 12:07:42;;;;;;;6.47;3.10;;;17.60;99.90;;;;;;5030462;28;20211;-62
2023/05/03 12:10:16;;;;;;;5.33;3.10;;;18.00;99.90;;;;;;5016729;28;20204;-60
2023/05/03 12:12:57;;;;;;;5.40;3.10;;;18.40;99.90;;;;;;5024188;28;20216;-60
2023/05/03 12:15:34;;;;;;;6.33;3.00;;;18.70;99.90;;;;;;5026340;28;20239;-59
2023/05/03 12:18:07;;;;;;;3.50;3.00;;;18.50;99.90;;;;;;5051721;28;20662;-59
2023/05/03 12:20:37;;;;;;;4.60;2.90;;;18.50;99.90;;;;;;5023174;28;20191;-63
2023/05/03 12:23:07;;;;;;;5.37;3.53;;;18.60;99.90;;;;;;5031690;28;20196;-60
2023/05/03 12:25:37;;;;;;;5.97;3.40;;;18.50;99.90;;;;;;5033651;28;20684;-64
2023/05/03 12:28:07;;;;;;;3.87;3.20;;;18.20;99.90;;;;;;5049309;28;20222;-61
2023/05/03 12:30:37;;;;;;;5.73;3.00;;;18.50;99.90;;;;;;5047044;28;20235;-60
2023/05/03 12:33:06;;;;;;;3.97;3.20;;;18.50;99.90;;;;;;5049677;28;20257;-61
2023/05/03 12:35:36;;;;;;;3.50;3.10;;;18.10;99.90;;;;;;5042334;28;20216;-63
2023/05/03 12:38:07;;;;;;;5.20;3.20;;;18.50;99.90;;;;;;5034992;28;20206;-63
2023/05/03 12:40:35;;;;;;;5.57;2.90;;;18.60;99.90;;;;;;5047118;28;20205;-63
2023/05/03 12:43:03;;;;;;;3.83;2.70;;;18.70;99.90;;;;;;5038441;28;20215;-65
2023/05/03 12:45:30;;;;;;;3.93;3.30;;;18.90;99.90;;;;;;5036339;28;20696;-63
2023/05/03 12:48:01;;;;;;;4.67;3.07;;;18.80;99.90;;;;;;5040919;28;20281;-63
2023/05/03 12:50:29;;;;;;;10.23;3.20;;;19.20;99.90;;;;;;5021595;28;20224;-63
2023/05/03 12:52:58;;;;;;;5.47;3.23;;;19.30;99.90;;;;;;5045100;28;20304;-62
2023/05/03 12:55:33;;;;;;;3.50;2.97;;;19.00;99.90;;;;;;5026864;28;20215;-62
2023/05/03 12:58:06;;;;;;;5.03;3.17;;;18.30;99.90;;;;;;5041936;28;20199;-62
2023/05/03 13:00:53;;;;;;;4.43;3.43;;;18.30;99.90;;;;;;5031407;28;20202;-64